sensor_id;sensor_type;location;lat;lon;timestamp;P1;durP1;ratioP1;P2;durP2;ratioP2
47796;SDS011;33558;50.922;14.068;2022-09-09T00:00:53;6.95;;;2.38;;
47796;SDS011;33558;50.922;14.068;2022-09-09T00:03:23;4.43;;;2.08;;
47796;SDS011;33558;50.922;14.068;2022-09-09T00:05:55;3.85;;;2.67;;
47796;SDS011;33558;50.922;14.068;2022-09-09T00:08:28;2.92;;;1.98;;
47796;SDS011;33558;50.922;14.068;2022-09-09T00:10:59;5.97;;;2.00;;
47796;SDS011;33558;50.922;14.068;2022-09-09T00:13:29;4.63;;;2.38;;
47796;SDS011;33558;50.922;14.068;2022-09-09T00:15:59;3.70;;;2.17;;
47796;SDS011;33558;50.922;14.068;2022-09-09T00:18:30;5.38;;;2.10;;
47796;SDS011;33558;50.922;14.068;2022-09-09T00:21:05;5.22;;;1.88;;
47796;SDS011;33558;50.922;14.068;2022-09-09T00:23:34;5.80;;;2.30;;
47796;SDS011;33558;50.922;14.068;2022-09-09T00:26:04;3.30;;;1.90;;
47796;SDS011;33558;50.922;14.068;2022-09-09T00:28:36;3.70;;;2.28;;
47796;SDS011;33558;50.922;14.068;2022-09-09T00:31:09;5.83;;;2.67;;
47796;SDS011;33558;50.922;14.068;2022-09-09T00:33:40;2.80;;;2.30;;
47796;SDS011;33558;50.922;14.068;2022-09-09T00:36:09;4.83;;;2.40;;
47796;SDS011;33558;50.922;14.068;2022-09-09T00:38:42;3.40;;;2.50;;
47796;SDS011;33558;50.922;14.068;2022-09-09T00:41:11;3.50;;;2.20;;
47796;SDS011;33558;50.922;14.068;2022-09-09T00:43:41;6.20;;;2.20;;
47796;SDS011;33558;50.922;14.068;2022-09-09T00:48:59;3.80;;;2.13;;
47796;SDS011;33558;50.922;14.068;2022-09-09T00:51:36;6.18;;;2.00;;
47796;SDS011;33558;50.922;14.068;2022-09-09T00:54:12;2.03;;;1.70;;
47796;SDS011;33558;50.922;14.068;2022-09-09T00:56:50;3.53;;;2.08;;
47796;SDS011;33558;50.922;14.068;2022-09-09T00:59:23;4.47;;;2.00;;
47796;SDS011;33558;50.922;14.068;2022-09-09T01:01:53;4.87;;;2.47;;
47796;SDS011;33558;50.922;14.068;2022-09-09T01:04:23;4.47;;;2.20;;
47796;SDS011;33558;50.922;14.068;2022-09-09T01:06:57;3.63;;;2.10;;
47796;SDS011;33558;50.922;14.068;2022-09-09T01:09:27;3.67;;;2.58;;
47796;SDS011;33558;50.922;14.068;2022-09-09T01:12:01;5.17;;;2.50;;
47796;SDS011;33558;50.922;14.068;2022-09-09T01:14:38;3.90;;;2.30;;
47796;SDS011;33558;50.922;14.068;2022-09-09T01:17:08;4.75;;;2.10;;
47796;SDS011;33558;50.922;14.068;2022-09-09T01:19:48;4.80;;;1.70;;
47796;SDS011;33558;50.922;14.068;2022-09-09T01:22:22;2.13;;;1.60;;
47796;SDS011;33558;50.922;14.068;2022-09-09T01:25:07;3.88;;;2.00;;
47796;SDS011;33558;50.922;14.068;2022-09-09T01:27:54;4.88;;;2.00;;
47796;SDS011;33558;50.922;14.068;2022-09-09T01:30:23;3.63;;;2.50;;
47796;SDS011;33558;50.922;14.068;2022-09-09T01:32:52;3.23;;;2.77;;
47796;SDS011;33558;50.922;14.068;2022-09-09T01:35:24;3.80;;;3.13;;
47796;SDS011;33558;50.922;14.068;2022-09-09T01:37:58;3.93;;;2.70;;
47796;SDS011;33558;50.922;14.068;2022-09-09T01:40:25;5.35;;;3.22;;
47796;SDS011;33558;50.922;14.068;2022-09-09T01:42:55;3.88;;;2.30;;
47796;SDS011;33558;50.922;14.068;2022-09-09T01:45:22;4.17;;;1.80;;
47796;SDS011;33558;50.922;14.068;2022-09-09T01:47:50;3.35;;;1.63;;
47796;SDS011;33558;50.922;14.068;2022-09-09T01:52:56;2.97;;;1.80;;
47796;SDS011;33558;50.922;14.068;2022-09-09T01:55:28;3.58;;;1.65;;
47796;SDS011;33558;50.922;14.068;2022-09-09T01:58:05;3.13;;;1.70;;
47796;SDS011;33558;50.922;14.068;2022-09-09T02:00:42;4.53;;;2.20;;
47796;SDS011;33558;50.922;14.068;2022-09-09T02:03:14;4.80;;;1.60;;
47796;SDS011;33558;50.922;14.068;2022-09-09T02:05:54;3.80;;;2.10;;
47796;SDS011;33558;50.922;14.068;2022-09-09T02:08:29;4.32;;;2.20;;
47796;SDS011;33558;50.922;14.068;2022-09-09T02:11:06;3.73;;;2.70;;
47796;SDS011;33558;50.922;14.068;2022-09-09T02:13:43;3.80;;;2.50;;
47796;SDS011;33558;50.922;14.068;2022-09-09T02:16:14;4.88;;;2.90;;
47796;SDS011;33558;50.922;14.068;2022-09-09T02:18:47;3.83;;;2.90;;
47796;SDS011;33558;50.922;14.068;2022-09-09T02:21:16;8.30;;;2.90;;
47796;SDS011;33558;50.922;14.068;2022-09-09T02:23:43;6.27;;;3.30;;
47796;SDS011;33558;50.922;14.068;2022-09-09T02:26:13;4.97;;;2.50;;
47796;SDS011;33558;50.922;14.068;2022-09-09T02:28:53;3.80;;;2.63;;
47796;SDS011;33558;50.922;14.068;2022-09-09T02:31:22;5.90;;;2.77;;
47796;SDS011;33558;50.922;14.068;2022-09-09T02:33:53;3.23;;;2.60;;
47796;SDS011;33558;50.922;14.068;2022-09-09T02:36:23;4.47;;;2.97;;
47796;SDS011;33558;50.922;14.068;2022-09-09T02:38:50;6.63;;;3.30;;
47796;SDS011;33558;50.922;14.068;2022-09-09T02:41:23;3.20;;;2.90;;
47796;SDS011;33558;50.922;14.068;2022-09-09T02:43:52;5.33;;;2.90;;
47796;SDS011;33558;50.922;14.068;2022-09-09T02:46:23;5.10;;;2.73;;
47796;SDS011;33558;50.922;14.068;2022-09-09T02:48:58;7.65;;;3.30;;
47796;SDS011;33558;50.922;14.068;2022-09-09T02:51:32;6.07;;;3.00;;
47796;SDS011;33558;50.922;14.068;2022-09-09T02:54:05;5.43;;;3.37;;
47796;SDS011;33558;50.922;14.068;2022-09-09T02:56:39;5.07;;;2.97;;
47796;SDS011;33558;50.922;14.068;2022-09-09T02:59:10;7.95;;;3.33;;
47796;SDS011;33558;50.922;14.068;2022-09-09T03:01:38;3.53;;;2.67;;
47796;SDS011;33558;50.922;14.068;2022-09-09T03:04:06;6.50;;;2.83;;
47796;SDS011;33558;50.922;14.068;2022-09-09T03:06:34;6.63;;;2.70;;
47796;SDS011;33558;50.922;14.068;2022-09-09T03:09:11;5.57;;;2.60;;
47796;SDS011;33558;50.922;14.068;2022-09-09T03:11:38;6.90;;;2.10;;
47796;SDS011;33558;50.922;14.068;2022-09-09T03:14:06;5.50;;;2.20;;
47796;SDS011;33558;50.922;14.068;2022-09-09T03:16:36;4.90;;;2.57;;
47796;SDS011;33558;50.922;14.068;2022-09-09T03:19:03;5.07;;;2.23;;
47796;SDS011;33558;50.922;14.068;2022-09-09T03:21:31;2.63;;;1.93;;
47796;SDS011;33558;50.922;14.068;2022-09-09T03:23:58;8.00;;;2.83;;
47796;SDS011;33558;50.922;14.068;2022-09-09T03:26:25;3.03;;;2.20;;
47796;SDS011;33558;50.922;14.068;2022-09-09T03:28:52;5.60;;;2.50;;
47796;SDS011;33558;50.922;14.068;2022-09-09T03:31:21;3.43;;;2.67;;
47796;SDS011;33558;50.922;14.068;2022-09-09T03:33:51;2.40;;;2.13;;
47796;SDS011;33558;50.922;14.068;2022-09-09T03:36:20;4.70;;;2.83;;
47796;SDS011;33558;50.922;14.068;2022-09-09T03:38:46;3.27;;;2.47;;
47796;SDS011;33558;50.922;14.068;2022-09-09T03:41:13;4.80;;;3.10;;
47796;SDS011;33558;50.922;14.068;2022-09-09T03:43:41;4.37;;;2.73;;
47796;SDS011;33558;50.922;14.068;2022-09-09T03:46:08;4.33;;;2.73;;
47796;SDS011;33558;50.922;14.068;2022-09-09T03:48:34;2.90;;;2.60;;
47796;SDS011;33558;50.922;14.068;2022-09-09T03:51:03;4.70;;;2.90;;
47796;SDS011;33558;50.922;14.068;2022-09-09T03:53:31;4.70;;;2.60;;
47796;SDS011;33558;50.922;14.068;2022-09-09T03:55:59;4.50;;;3.00;;
47796;SDS011;33558;50.922;14.068;2022-09-09T03:58:26;5.07;;;2.87;;
47796;SDS011;33558;50.922;14.068;2022-09-09T04:00:59;5.83;;;2.83;;
47796;SDS011;33558;50.922;14.068;2022-09-09T04:03:27;4.10;;;3.03;;
47796;SDS011;33558;50.922;14.068;2022-09-09T04:05:55;4.83;;;3.00;;
47796;SDS011;33558;50.922;14.068;2022-09-09T04:08:26;4.77;;;2.73;;
47796;SDS011;33558;50.922;14.068;2022-09-09T04:10:53;5.30;;;3.00;;
47796;SDS011;33558;50.922;14.068;2022-09-09T04:13:24;4.20;;;2.70;;
47796;SDS011;33558;50.922;14.068;2022-09-09T04:15:52;4.17;;;2.63;;
47796;SDS011;33558;50.922;14.068;2022-09-09T04:18:19;4.60;;;3.17;;
47796;SDS011;33558;50.922;14.068;2022-09-09T04:20:46;4.73;;;3.57;;
47796;SDS011;33558;50.922;14.068;2022-09-09T04:23:14;4.60;;;3.47;;
47796;SDS011;33558;50.922;14.068;2022-09-09T04:25:44;5.57;;;3.17;;
47796;SDS011;33558;50.922;14.068;2022-09-09T04:28:12;4.13;;;3.03;;
47796;SDS011;33558;50.922;14.068;2022-09-09T04:30:39;4.73;;;2.77;;
47796;SDS011;33558;50.922;14.068;2022-09-09T04:33:06;6.87;;;3.10;;
47796;SDS011;33558;50.922;14.068;2022-09-09T04:35:32;4.93;;;3.30;;
47796;SDS011;33558;50.922;14.068;2022-09-09T04:38:00;4.00;;;3.50;;
47796;SDS011;33558;50.922;14.068;2022-09-09T04:40:27;6.37;;;3.37;;
47796;SDS011;33558;50.922;14.068;2022-09-09T04:42:57;6.57;;;3.20;;
47796;SDS011;33558;50.922;14.068;2022-09-09T04:45:24;8.20;;;3.43;;
47796;SDS011;33558;50.922;14.068;2022-09-09T04:47:52;4.47;;;2.90;;
47796;SDS011;33558;50.922;14.068;2022-09-09T04:50:19;5.13;;;3.10;;
47796;SDS011;33558;50.922;14.068;2022-09-09T04:52:46;5.93;;;3.13;;
47796;SDS011;33558;50.922;14.068;2022-09-09T04:55:13;5.20;;;3.23;;
47796;SDS011;33558;50.922;14.068;2022-09-09T04:57:43;6.37;;;3.47;;
47796;SDS011;33558;50.922;14.068;2022-09-09T05:00:13;5.30;;;3.30;;
47796;SDS011;33558;50.922;14.068;2022-09-09T05:02:43;8.77;;;3.28;;
47796;SDS011;33558;50.922;14.068;2022-09-09T05:05:09;3.30;;;2.90;;
47796;SDS011;33558;50.922;14.068;2022-09-09T05:07:37;3.93;;;3.00;;
47796;SDS011;33558;50.922;14.068;2022-09-09T05:10:04;6.83;;;3.60;;
47796;SDS011;33558;50.922;14.068;2022-09-09T05:12:33;5.70;;;2.70;;
47796;SDS011;33558;50.922;14.068;2022-09-09T05:15:00;7.10;;;3.00;;
47796;SDS011;33558;50.922;14.068;2022-09-09T05:17:28;3.77;;;2.77;;
47796;SDS011;33558;50.922;14.068;2022-09-09T05:19:55;4.60;;;2.97;;
47796;SDS011;33558;50.922;14.068;2022-09-09T05:22:22;5.87;;;3.40;;
47796;SDS011;33558;50.922;14.068;2022-09-09T05:24:50;3.73;;;2.90;;
47796;SDS011;33558;50.922;14.068;2022-09-09T05:27:17;4.45;;;2.63;;
47796;SDS011;33558;50.922;14.068;2022-09-09T05:29:45;4.00;;;2.90;;
47796;SDS011;33558;50.922;14.068;2022-09-09T05:32:13;6.73;;;2.90;;
47796;SDS011;33558;50.922;14.068;2022-09-09T05:34:42;4.82;;;3.22;;
47796;SDS011;33558;50.922;14.068;2022-09-09T05:37:09;3.90;;;3.13;;
47796;SDS011;33558;50.922;14.068;2022-09-09T05:39:36;3.73;;;3.00;;
47796;SDS011;33558;50.922;14.068;2022-09-09T05:42:03;5.90;;;2.97;;
47796;SDS011;33558;50.922;14.068;2022-09-09T05:44:32;5.25;;;3.10;;
47796;SDS011;33558;50.922;14.068;2022-09-09T05:46:59;5.35;;;3.20;;
47796;SDS011;33558;50.922;14.068;2022-09-09T05:49:26;4.68;;;3.10;;
47796;SDS011;33558;50.922;14.068;2022-09-09T05:51:54;4.20;;;3.03;;
47796;SDS011;33558;50.922;14.068;2022-09-09T05:54:22;4.13;;;3.20;;
47796;SDS011;33558;50.922;14.068;2022-09-09T05:56:50;5.35;;;3.03;;
47796;SDS011;33558;50.922;14.068;2022-09-09T05:59:18;4.17;;;3.03;;
47796;SDS011;33558;50.922;14.068;2022-09-09T06:01:45;5.78;;;3.72;;
47796;SDS011;33558;50.922;14.068;2022-09-09T06:04:23;5.50;;;3.33;;
47796;SDS011;33558;50.922;14.068;2022-09-09T06:06:50;6.15;;;3.22;;
47796;SDS011;33558;50.922;14.068;2022-09-09T06:09:21;5.38;;;3.00;;
47796;SDS011;33558;50.922;14.068;2022-09-09T06:11:48;5.32;;;3.00;;
47796;SDS011;33558;50.922;14.068;2022-09-09T06:14:15;6.38;;;3.28;;
47796;SDS011;33558;50.922;14.068;2022-09-09T06:16:45;5.65;;;3.53;;
47796;SDS011;33558;50.922;14.068;2022-09-09T06:19:29;3.33;;;2.78;;
47796;SDS011;33558;50.922;14.068;2022-09-09T06:21:58;6.25;;;3.90;;
47796;SDS011;33558;50.922;14.068;2022-09-09T06:24:27;4.95;;;3.30;;
47796;SDS011;33558;50.922;14.068;2022-09-09T06:26:56;4.93;;;2.40;;
47796;SDS011;33558;50.922;14.068;2022-09-09T06:29:27;4.40;;;3.05;;
47796;SDS011;33558;50.922;14.068;2022-09-09T06:31:53;6.28;;;3.10;;
47796;SDS011;33558;50.922;14.068;2022-09-09T06:34:22;4.70;;;3.03;;
47796;SDS011;33558;50.922;14.068;2022-09-09T06:36:53;6.95;;;3.65;;
47796;SDS011;33558;50.922;14.068;2022-09-09T06:39:20;5.57;;;3.35;;
47796;SDS011;33558;50.922;14.068;2022-09-09T06:41:48;3.85;;;2.97;;
47796;SDS011;33558;50.922;14.068;2022-09-09T06:44:38;6.10;;;3.00;;
47796;SDS011;33558;50.922;14.068;2022-09-09T06:47:07;3.38;;;2.63;;
47796;SDS011;33558;50.922;14.068;2022-09-09T06:49:34;5.22;;;3.00;;
47796;SDS011;33558;50.922;14.068;2022-09-09T06:52:04;5.20;;;3.03;;
47796;SDS011;33558;50.922;14.068;2022-09-09T06:54:31;5.90;;;3.10;;
47796;SDS011;33558;50.922;14.068;2022-09-09T06:57:00;5.18;;;3.17;;
47796;SDS011;33558;50.922;14.068;2022-09-09T06:59:28;3.03;;;2.63;;
47796;SDS011;33558;50.922;14.068;2022-09-09T07:01:58;4.55;;;2.88;;
47796;SDS011;33558;50.922;14.068;2022-09-09T07:04:25;4.50;;;2.60;;
47796;SDS011;33558;50.922;14.068;2022-09-09T07:06:52;3.53;;;2.50;;
47796;SDS011;33558;50.922;14.068;2022-09-09T07:09:22;3.08;;;2.25;;
47796;SDS011;33558;50.922;14.068;2022-09-09T07:11:51;3.13;;;2.35;;
47796;SDS011;33558;50.922;14.068;2022-09-09T07:14:21;4.35;;;3.15;;
47796;SDS011;33558;50.922;14.068;2022-09-09T07:16:58;5.60;;;2.45;;
47796;SDS011;33558;50.922;14.068;2022-09-09T07:19:27;2.70;;;2.35;;
47796;SDS011;33558;50.922;14.068;2022-09-09T07:21:55;6.00;;;2.70;;
47796;SDS011;33558;50.922;14.068;2022-09-09T07:24:23;6.20;;;2.83;;
47796;SDS011;33558;50.922;14.068;2022-09-09T07:26:50;9.60;;;2.95;;
47796;SDS011;33558;50.922;14.068;2022-09-09T07:29:18;3.25;;;2.47;;
47796;SDS011;33558;50.922;14.068;2022-09-09T07:31:46;3.70;;;2.60;;
47796;SDS011;33558;50.922;14.068;2022-09-09T07:34:17;5.22;;;2.83;;
47796;SDS011;33558;50.922;14.068;2022-09-09T07:36:44;4.47;;;2.60;;
47796;SDS011;33558;50.922;14.068;2022-09-09T07:39:12;4.63;;;2.72;;
47796;SDS011;33558;50.922;14.068;2022-09-09T07:41:44;2.83;;;2.30;;
47796;SDS011;33558;50.922;14.068;2022-09-09T07:44:13;5.32;;;2.92;;
47796;SDS011;33558;50.922;14.068;2022-09-09T07:46:42;3.53;;;2.28;;
47796;SDS011;33558;50.922;14.068;2022-09-09T07:49:14;4.55;;;2.40;;
47796;SDS011;33558;50.922;14.068;2022-09-09T07:51:41;3.95;;;2.30;;
47796;SDS011;33558;50.922;14.068;2022-09-09T07:54:13;4.22;;;2.38;;
47796;SDS011;33558;50.922;14.068;2022-09-09T07:56:43;2.55;;;1.90;;
47796;SDS011;33558;50.922;14.068;2022-09-09T07:59:11;4.30;;;2.33;;
47796;SDS011;33558;50.922;14.068;2022-09-09T08:01:41;4.85;;;2.20;;
47796;SDS011;33558;50.922;14.068;2022-09-09T08:04:11;3.92;;;2.30;;
47796;SDS011;33558;50.922;14.068;2022-09-09T08:06:42;2.78;;;2.42;;
47796;SDS011;33558;50.922;14.068;2022-09-09T08:09:12;2.25;;;2.05;;
47796;SDS011;33558;50.922;14.068;2022-09-09T08:11:40;2.10;;;1.80;;
47796;SDS011;33558;50.922;14.068;2022-09-09T08:14:07;3.45;;;2.15;;
47796;SDS011;33558;50.922;14.068;2022-09-09T08:16:35;2.40;;;1.75;;
47796;SDS011;33558;50.922;14.068;2022-09-09T08:19:03;3.15;;;1.98;;
47796;SDS011;33558;50.922;14.068;2022-09-09T08:21:31;2.08;;;1.80;;
47796;SDS011;33558;50.922;14.068;2022-09-09T08:24:00;2.85;;;1.70;;
47796;SDS011;33558;50.922;14.068;2022-09-09T08:26:28;2.83;;;1.65;;
47796;SDS011;33558;50.922;14.068;2022-09-09T08:28:56;2.67;;;1.63;;
47796;SDS011;33558;50.922;14.068;2022-09-09T08:31:26;2.72;;;1.80;;
47796;SDS011;33558;50.922;14.068;2022-09-09T08:33:54;3.60;;;1.88;;
47796;SDS011;33558;50.922;14.068;2022-09-09T08:36:22;4.28;;;1.73;;
47796;SDS011;33558;50.922;14.068;2022-09-09T08:38:51;3.58;;;1.95;;
47796;SDS011;33558;50.922;14.068;2022-09-09T08:41:32;3.70;;;1.75;;
47796;SDS011;33558;50.922;14.068;2022-09-09T08:44:06;3.90;;;1.70;;
47796;SDS011;33558;50.922;14.068;2022-09-09T08:46:35;3.35;;;1.95;;
47796;SDS011;33558;50.922;14.068;2022-09-09T08:49:13;2.08;;;1.50;;
47796;SDS011;33558;50.922;14.068;2022-09-09T08:51:51;2.35;;;1.38;;
47796;SDS011;33558;50.922;14.068;2022-09-09T08:54:20;2.47;;;1.40;;
47796;SDS011;33558;50.922;14.068;2022-09-09T08:56:49;2.30;;;1.50;;
47796;SDS011;33558;50.922;14.068;2022-09-09T08:59:17;4.13;;;2.20;;
47796;SDS011;33558;50.922;14.068;2022-09-09T09:01:54;4.40;;;1.80;;
47796;SDS011;33558;50.922;14.068;2022-09-09T09:04:37;5.22;;;2.10;;
47796;SDS011;33558;50.922;14.068;2022-09-09T09:07:11;7.30;;;2.45;;
47796;SDS011;33558;50.922;14.068;2022-09-09T09:09:46;5.00;;;2.28;;
47796;SDS011;33558;50.922;14.068;2022-09-09T09:12:20;6.50;;;2.85;;
47796;SDS011;33558;50.922;14.068;2022-09-09T09:14:49;8.45;;;3.15;;
47796;SDS011;33558;50.922;14.068;2022-09-09T09:17:17;5.38;;;2.15;;
47796;SDS011;33558;50.922;14.068;2022-09-09T09:19:46;6.53;;;1.92;;
47796;SDS011;33558;50.922;14.068;2022-09-09T09:22:16;4.10;;;1.98;;
47796;SDS011;33558;50.922;14.068;2022-09-09T09:24:49;3.53;;;1.42;;
47796;SDS011;33558;50.922;14.068;2022-09-09T09:27:25;4.35;;;1.40;;
47796;SDS011;33558;50.922;14.068;2022-09-09T09:29:57;4.53;;;1.60;;
47796;SDS011;33558;50.922;14.068;2022-09-09T09:32:26;2.67;;;1.75;;
47796;SDS011;33558;50.922;14.068;2022-09-09T09:34:55;4.13;;;1.70;;
47796;SDS011;33558;50.922;14.068;2022-09-09T09:37:25;3.97;;;1.48;;
47796;SDS011;33558;50.922;14.068;2022-09-09T09:39:56;4.28;;;1.73;;
47796;SDS011;33558;50.922;14.068;2022-09-09T09:42:36;4.63;;;1.73;;
47796;SDS011;33558;50.922;14.068;2022-09-09T09:45:08;4.93;;;2.03;;
47796;SDS011;33558;50.922;14.068;2022-09-09T09:47:39;4.93;;;1.90;;
47796;SDS011;33558;50.922;14.068;2022-09-09T09:50:17;4.65;;;1.65;;
47796;SDS011;33558;50.922;14.068;2022-09-09T09:52:53;3.97;;;1.73;;
47796;SDS011;33558;50.922;14.068;2022-09-09T09:55:23;2.72;;;1.85;;
47796;SDS011;33558;50.922;14.068;2022-09-09T09:57:52;6.95;;;2.03;;
47796;SDS011;33558;50.922;14.068;2022-09-09T10:00:20;3.40;;;1.40;;
47796;SDS011;33558;50.922;14.068;2022-09-09T10:02:55;4.63;;;1.40;;
47796;SDS011;33558;50.922;14.068;2022-09-09T10:05:26;4.03;;;1.50;;
47796;SDS011;33558;50.922;14.068;2022-09-09T10:08:00;4.13;;;1.63;;
47796;SDS011;33558;50.922;14.068;2022-09-09T10:10:36;2.78;;;1.38;;
47796;SDS011;33558;50.922;14.068;2022-09-09T10:13:17;3.65;;;1.75;;
47796;SDS011;33558;50.922;14.068;2022-09-09T10:18:25;6.93;;;1.90;;
47796;SDS011;33558;50.922;14.068;2022-09-09T10:21:08;3.03;;;1.60;;
47796;SDS011;33558;50.922;14.068;2022-09-09T10:23:46;3.92;;;1.67;;
47796;SDS011;33558;50.922;14.068;2022-09-09T10:26:27;3.70;;;1.70;;
47796;SDS011;33558;50.922;14.068;2022-09-09T10:29:03;4.35;;;1.42;;
47796;SDS011;33558;50.922;14.068;2022-09-09T10:31:41;4.90;;;1.80;;
47796;SDS011;33558;50.922;14.068;2022-09-09T10:34:17;4.40;;;1.50;;
47796;SDS011;33558;50.922;14.068;2022-09-09T10:37:00;5.18;;;1.77;;
47796;SDS011;33558;50.922;14.068;2022-09-09T10:39:32;4.25;;;1.50;;
47796;SDS011;33558;50.922;14.068;2022-09-09T10:42:01;5.13;;;1.50;;
47796;SDS011;33558;50.922;14.068;2022-09-09T10:44:42;3.97;;;1.40;;
47796;SDS011;33558;50.922;14.068;2022-09-09T10:47:26;2.72;;;1.25;;
47796;SDS011;33558;50.922;14.068;2022-09-09T10:50:09;4.80;;;1.48;;
47796;SDS011;33558;50.922;14.068;2022-09-09T10:52:55;2.67;;;1.30;;
47796;SDS011;33558;50.922;14.068;2022-09-09T10:55:28;5.40;;;1.70;;
47796;SDS011;33558;50.922;14.068;2022-09-09T10:58:02;2.88;;;1.30;;
47796;SDS011;33558;50.922;14.068;2022-09-09T11:00:31;4.28;;;1.60;;
47796;SDS011;33558;50.922;14.068;2022-09-09T11:03:04;4.03;;;1.73;;
47796;SDS011;33558;50.922;14.068;2022-09-09T11:05:35;4.43;;;1.70;;
47796;SDS011;33558;50.922;14.068;2022-09-09T11:08:09;4.70;;;2.03;;
47796;SDS011;33558;50.922;14.068;2022-09-09T11:10:38;6.15;;;2.10;;
47796;SDS011;33558;50.922;14.068;2022-09-09T11:13:08;4.47;;;1.73;;
47796;SDS011;33558;50.922;14.068;2022-09-09T11:15:41;4.63;;;1.55;;
47796;SDS011;33558;50.922;14.068;2022-09-09T11:18:10;3.08;;;1.70;;
47796;SDS011;33558;50.922;14.068;2022-09-09T11:20:40;6.80;;;1.70;;
47796;SDS011;33558;50.922;14.068;2022-09-09T11:23:09;4.60;;;1.42;;
47796;SDS011;33558;50.922;14.068;2022-09-09T11:25:39;3.53;;;1.75;;
47796;SDS011;33558;50.922;14.068;2022-09-09T11:31:02;3.92;;;1.85;;
47796;SDS011;33558;50.922;14.068;2022-09-09T11:33:41;3.20;;;2.03;;
47796;SDS011;33558;50.922;14.068;2022-09-09T11:39:41;3.40;;;1.65;;
47796;SDS011;33558;50.922;14.068;2022-09-09T11:42:15;5.25;;;1.70;;
47796;SDS011;33558;50.922;14.068;2022-09-09T11:44:44;4.00;;;1.77;;
47796;SDS011;33558;50.922;14.068;2022-09-09T11:47:22;4.82;;;1.60;;
47796;SDS011;33558;50.922;14.068;2022-09-09T11:49:54;2.60;;;1.73;;
47796;SDS011;33558;50.922;14.068;2022-09-09T11:52:22;3.40;;;1.60;;
47796;SDS011;33558;50.922;14.068;2022-09-09T11:54:50;4.75;;;1.50;;
47796;SDS011;33558;50.922;14.068;2022-09-09T11:57:23;3.05;;;1.58;;
47796;SDS011;33558;50.922;14.068;2022-09-09T11:59:53;4.80;;;1.60;;
47796;SDS011;33558;50.922;14.068;2022-09-09T12:02:23;4.43;;;1.63;;
47796;SDS011;33558;50.922;14.068;2022-09-09T12:04:54;4.25;;;1.33;;
47796;SDS011;33558;50.922;14.068;2022-09-09T12:07:33;3.42;;;1.50;;
47796;SDS011;33558;50.922;14.068;2022-09-09T12:10:03;3.72;;;1.20;;
47796;SDS011;33558;50.922;14.068;2022-09-09T12:12:35;1.75;;;0.80;;
47796;SDS011;33558;50.922;14.068;2022-09-09T12:17:56;3.60;;;1.08;;
47796;SDS011;33558;50.922;14.068;2022-09-09T12:20:26;8.85;;;1.50;;
47796;SDS011;33558;50.922;14.068;2022-09-09T12:23:01;6.25;;;1.20;;
47796;SDS011;33558;50.922;14.068;2022-09-09T12:25:38;1.58;;;0.90;;
47796;SDS011;33558;50.922;14.068;2022-09-09T12:28:16;2.58;;;0.90;;
47796;SDS011;33558;50.922;14.068;2022-09-09T12:30:47;4.57;;;1.00;;
47796;SDS011;33558;50.922;14.068;2022-09-09T12:33:18;2.30;;;0.98;;
47796;SDS011;33558;50.922;14.068;2022-09-09T12:35:48;4.30;;;1.27;;
47796;SDS011;33558;50.922;14.068;2022-09-09T12:38:20;2.63;;;0.90;;
47796;SDS011;33558;50.922;14.068;2022-09-09T12:40:55;2.25;;;0.93;;
47796;SDS011;33558;50.922;14.068;2022-09-09T12:43:23;4.03;;;1.20;;
47796;SDS011;33558;50.922;14.068;2022-09-09T12:45:50;2.75;;;1.20;;
47796;SDS011;33558;50.922;14.068;2022-09-09T12:48:24;2.22;;;1.13;;
47796;SDS011;33558;50.922;14.068;2022-09-09T12:50:55;2.85;;;1.00;;
47796;SDS011;33558;50.922;14.068;2022-09-09T12:53:23;2.92;;;1.17;;
47796;SDS011;33558;50.922;14.068;2022-09-09T12:55:52;2.78;;;1.20;;
47796;SDS011;33558;50.922;14.068;2022-09-09T12:58:20;3.33;;;1.17;;
47796;SDS011;33558;50.922;14.068;2022-09-09T13:00:50;2.47;;;0.88;;
47796;SDS011;33558;50.922;14.068;2022-09-09T13:03:18;3.15;;;1.20;;
47796;SDS011;33558;50.922;14.068;2022-09-09T13:05:48;3.13;;;1.20;;
47796;SDS011;33558;50.922;14.068;2022-09-09T13:08:15;3.58;;;1.52;;
47796;SDS011;33558;50.922;14.068;2022-09-09T13:10:46;6.03;;;1.60;;
47796;SDS011;33558;50.922;14.068;2022-09-09T13:13:13;3.28;;;1.20;;
47796;SDS011;33558;50.922;14.068;2022-09-09T13:15:47;2.17;;;0.98;;
47796;SDS011;33558;50.922;14.068;2022-09-09T13:18:15;4.85;;;1.42;;
47796;SDS011;33558;50.922;14.068;2022-09-09T13:20:45;2.85;;;1.10;;
47796;SDS011;33558;50.922;14.068;2022-09-09T13:23:14;3.70;;;1.10;;
47796;SDS011;33558;50.922;14.068;2022-09-09T13:25:42;1.50;;;0.77;;
47796;SDS011;33558;50.922;14.068;2022-09-09T13:28:20;2.88;;;0.85;;
47796;SDS011;33558;50.922;14.068;2022-09-09T13:30:54;4.28;;;1.30;;
47796;SDS011;33558;50.922;14.068;2022-09-09T13:33:28;3.38;;;0.93;;
47796;SDS011;33558;50.922;14.068;2022-09-09T13:35:58;3.70;;;0.90;;
47796;SDS011;33558;50.922;14.068;2022-09-09T13:38:26;1.67;;;0.77;;
47796;SDS011;33558;50.922;14.068;2022-09-09T13:40:55;3.45;;;0.93;;
47796;SDS011;33558;50.922;14.068;2022-09-09T13:43:27;2.45;;;1.00;;
47796;SDS011;33558;50.922;14.068;2022-09-09T13:45:58;1.65;;;0.80;;
47796;SDS011;33558;50.922;14.068;2022-09-09T13:48:25;2.17;;;0.80;;
47796;SDS011;33558;50.922;14.068;2022-09-09T13:50:57;4.13;;;1.00;;
47796;SDS011;33558;50.922;14.068;2022-09-09T13:53:26;1.80;;;0.80;;
47796;SDS011;33558;50.922;14.068;2022-09-09T13:55:53;2.25;;;0.70;;
47796;SDS011;33558;50.922;14.068;2022-09-09T13:58:19;2.75;;;1.08;;
47796;SDS011;33558;50.922;14.068;2022-09-09T14:00:49;5.13;;;1.00;;
47796;SDS011;33558;50.922;14.068;2022-09-09T14:03:16;3.63;;;1.40;;
47796;SDS011;33558;50.922;14.068;2022-09-09T14:05:42;2.08;;;1.02;;
47796;SDS011;33558;50.922;14.068;2022-09-09T14:08:14;5.28;;;1.05;;
47796;SDS011;33558;50.922;14.068;2022-09-09T14:10:45;3.00;;;1.10;;
47796;SDS011;33558;50.922;14.068;2022-09-09T14:13:11;2.30;;;1.02;;
47796;SDS011;33558;50.922;14.068;2022-09-09T14:15:38;5.28;;;1.08;;
47796;SDS011;33558;50.922;14.068;2022-09-09T14:18:05;3.78;;;1.08;;
47796;SDS011;33558;50.922;14.068;2022-09-09T14:20:31;3.67;;;0.70;;
47796;SDS011;33558;50.922;14.068;2022-09-09T14:22:58;4.75;;;0.80;;
47796;SDS011;33558;50.922;14.068;2022-09-09T14:25:26;3.28;;;1.10;;
47796;SDS011;33558;50.922;14.068;2022-09-09T14:27:52;9.52;;;1.48;;
47796;SDS011;33558;50.922;14.068;2022-09-09T14:30:19;4.93;;;1.55;;
47796;SDS011;33558;50.922;14.068;2022-09-09T14:32:46;3.35;;;1.02;;
47796;SDS011;33558;50.922;14.068;2022-09-09T14:35:12;4.32;;;1.27;;
47796;SDS011;33558;50.922;14.068;2022-09-09T14:37:39;3.75;;;1.10;;
47796;SDS011;33558;50.922;14.068;2022-09-09T14:40:06;3.55;;;1.00;;
47796;SDS011;33558;50.922;14.068;2022-09-09T14:42:37;3.28;;;1.13;;
47796;SDS011;33558;50.922;14.068;2022-09-09T14:45:04;5.80;;;1.63;;
47796;SDS011;33558;50.922;14.068;2022-09-09T14:47:31;1.90;;;0.95;;
47796;SDS011;33558;50.922;14.068;2022-09-09T14:49:58;5.68;;;1.65;;
47796;SDS011;33558;50.922;14.068;2022-09-09T14:52:26;5.63;;;1.45;;
47796;SDS011;33558;50.922;14.068;2022-09-09T14:54:54;3.53;;;1.48;;
47796;SDS011;33558;50.922;14.068;2022-09-09T14:57:21;4.05;;;1.40;;
47796;SDS011;33558;50.922;14.068;2022-09-09T14:59:49;4.45;;;1.55;;
47796;SDS011;33558;50.922;14.068;2022-09-09T15:02:16;4.13;;;1.52;;
47796;SDS011;33558;50.922;14.068;2022-09-09T15:04:42;7.88;;;1.90;;
47796;SDS011;33558;50.922;14.068;2022-09-09T15:07:10;2.88;;;1.70;;
47796;SDS011;33558;50.922;14.068;2022-09-09T15:09:36;2.78;;;1.75;;